sensor_id;sensor_type;location;lat;lon;timestamp;temperature;humidity
5870;DHT22;2961;47.702;9.410;2023-07-13T00:00:49;17.30;99.90
5870;DHT22;2961;47.702;9.410;2023-07-13T00:03:16;17.30;99.90
5870;DHT22;2961;47.702;9.410;2023-07-13T00:05:43;17.40;99.90
5870;DHT22;2961;47.702;9.410;2023-07-13T00:08:10;17.30;99.90
5870;DHT22;2961;47.702;9.410;2023-07-13T00:10:39;17.30;99.90
5870;DHT22;2961;47.702;9.410;2023-07-13T00:13:07;17.20;99.90
5870;DHT22;2961;47.702;9.410;2023-07-13T00:15:35;17.30;99.90
5870;DHT22;2961;47.702;9.410;2023-07-13T00:18:01;17.20;99.90
5870;DHT22;2961;47.702;9.410;2023-07-13T00:20:28;17.10;99.90
5870;DHT22;2961;47.702;9.410;2023-07-13T00:22:55;17.10;99.90
5870;DHT22;2961;47.702;9.410;2023-07-13T00:25:23;17.10;99.90
5870;DHT22;2961;47.702;9.410;2023-07-13T00:27:51;17.00;99.90
5870;DHT22;2961;47.702;9.410;2023-07-13T00:30:19;17.00;99.90
5870;DHT22;2961;47.702;9.410;2023-07-13T00:32:46;16.90;99.90
5870;DHT22;2961;47.702;9.410;2023-07-13T00:35:14;16.90;99.90
5870;DHT22;2961;47.702;9.410;2023-07-13T00:37:41;17.00;99.90
5870;DHT22;2961;47.702;9.410;2023-07-13T00:40:10;17.00;99.90
5870;DHT22;2961;47.702;9.410;2023-07-13T00:42:37;16.90;99.90
5870;DHT22;2961;47.702;9.410;2023-07-13T00:45:06;16.90;99.90
5870;DHT22;2961;47.702;9.410;2023-07-13T00:47:35;16.90;99.90
5870;DHT22;2961;47.702;9.410;2023-07-13T00:50:03;16.90;99.90
5870;DHT22;2961;47.702;9.410;2023-07-13T00:52:31;16.90;99.90
5870;DHT22;2961;47.702;9.410;2023-07-13T00:54:58;17.00;99.90
5870;DHT22;2961;47.702;9.410;2023-07-13T00:57:26;17.00;99.90
5870;DHT22;2961;47.702;9.410;2023-07-13T00:59:57;17.10;99.90
5870;DHT22;2961;47.702;9.410;2023-07-13T01:02:25;17.10;99.90
5870;DHT22;2961;47.702;9.410;2023-07-13T01:04:54;17.10;99.90
5870;DHT22;2961;47.702;9.410;2023-07-13T01:07:21;17.10;99.90
5870;DHT22;2961;47.702;9.410;2023-07-13T01:09:48;17.10;99.90
5870;DHT22;2961;47.702;9.410;2023-07-13T01:12:14;17.10;99.90
5870;DHT22;2961;47.702;9.410;2023-07-13T01:14:41;17.10;99.90
5870;DHT22;2961;47.702;9.410;2023-07-13T01:17:09;17.20;99.90
5870;DHT22;2961;47.702;9.410;2023-07-13T01:19:38;17.20;99.90
5870;DHT22;2961;47.702;9.410;2023-07-13T01:22:07;17.20;99.90
5870;DHT22;2961;47.702;9.410;2023-07-13T01:24:37;17.20;99.90
5870;DHT22;2961;47.702;9.410;2023-07-13T01:27:06;17.20;99.90
5870;DHT22;2961;47.702;9.410;2023-07-13T01:29:36;17.10;99.90
5870;DHT22;2961;47.702;9.410;2023-07-13T01:32:08;17.10;99.90
5870;DHT22;2961;47.702;9.410;2023-07-13T01:34:35;17.10;99.90
5870;DHT22;2961;47.702;9.410;2023-07-13T01:37:05;17.00;99.90
5870;DHT22;2961;47.702;9.410;2023-07-13T01:39:32;16.90;99.90
5870;DHT22;2961;47.702;9.410;2023-07-13T01:41:59;16.80;99.90
5870;DHT22;2961;47.702;9.410;2023-07-13T01:44:26;16.80;99.90
5870;DHT22;2961;47.702;9.410;2023-07-13T01:46:53;16.80;99.90
5870;DHT22;2961;47.702;9.410;2023-07-13T01:49:20;16.80;99.90
5870;DHT22;2961;47.702;9.410;2023-07-13T01:51:47;16.70;99.90
5870;DHT22;2961;47.702;9.410;2023-07-13T01:54:15;16.60;99.90
5870;DHT22;2961;47.702;9.410;2023-07-13T01:56:42;16.60;99.90
5870;DHT22;2961;47.702;9.410;2023-07-13T01:59:09;16.60;99.90
5870;DHT22;2961;47.702;9.410;2023-07-13T02:01:36;16.70;99.90
5870;DHT22;2961;47.702;9.410;2023-07-13T02:04:03;16.70;99.90
5870;DHT22;2961;47.702;9.410;2023-07-13T02:06:30;16.70;99.90
5870;DHT22;2961;47.702;9.410;2023-07-13T02:08:57;16.70;99.90
5870;DHT22;2961;47.702;9.410;2023-07-13T02:14:48;16.60;99.90
5870;DHT22;2961;47.702;9.410;2023-07-13T02:17:15;16.50;99.90
5870;DHT22;2961;47.702;9.410;2023-07-13T02:19:42;16.60;99.90
5870;DHT22;2961;47.702;9.410;2023-07-13T02:22:09;16.60;99.90
5870;DHT22;2961;47.702;9.410;2023-07-13T02:24:35;16.60;99.90
5870;DHT22;2961;47.702;9.410;2023-07-13T02:27:04;16.50;99.90
5870;DHT22;2961;47.702;9.410;2023-07-13T02:29:31;16.50;99.90
5870;DHT22;2961;47.702;9.410;2023-07-13T02:31:59;16.60;99.90
5870;DHT22;2961;47.702;9.410;2023-07-13T02:34:26;16.60;99.90
5870;DHT22;2961;47.702;9.410;2023-07-13T02:36:52;16.70;99.90
5870;DHT22;2961;47.702;9.410;2023-07-13T02:39:19;16.70;99.90
5870;DHT22;2961;47.702;9.410;2023-07-13T02:41:46;16.70;99.90
5870;DHT22;2961;47.702;9.410;2023-07-13T02:44:13;16.70;99.90
5870;DHT22;2961;47.702;9.410;2023-07-13T02:46:40;16.70;99.90
5870;DHT22;2961;47.702;9.410;2023-07-13T02:49:08;16.70;99.90
5870;DHT22;2961;47.702;9.410;2023-07-13T02:51:35;16.70;99.90
5870;DHT22;2961;47.702;9.410;2023-07-13T02:54:03;16.80;99.90
5870;DHT22;2961;47.702;9.410;2023-07-13T02:56:31;16.80;99.90
5870;DHT22;2961;47.702;9.410;2023-07-13T02:58:58;16.90;99.90
5870;DHT22;2961;47.702;9.410;2023-07-13T03:01:25;16.90;99.90
5870;DHT22;2961;47.702;9.410;2023-07-13T03:03:52;17.00;99.90
5870;DHT22;2961;47.702;9.410;2023-07-13T03:06:20;17.00;99.90
5870;DHT22;2961;47.702;9.410;2023-07-13T03:08:48;17.00;99.90
5870;DHT22;2961;47.702;9.410;2023-07-13T03:11:18;17.00;99.90
5870;DHT22;2961;47.702;9.410;2023-07-13T03:13:45;17.10;99.90
5870;DHT22;2961;47.702;9.410;2023-07-13T03:16:13;17.10;99.90
5870;DHT22;2961;47.702;9.410;2023-07-13T03:18:41;17.10;99.90
5870;DHT22;2961;47.702;9.410;2023-07-13T03:21:08;17.10;99.90
5870;DHT22;2961;47.702;9.410;2023-07-13T03:23:36;17.00;99.90
5870;DHT22;2961;47.702;9.410;2023-07-13T03:26:05;17.00;99.90
5870;DHT22;2961;47.702;9.410;2023-07-13T03:28:33;17.10;99.90
5870;DHT22;2961;47.702;9.410;2023-07-13T03:31:01;17.10;99.90
5870;DHT22;2961;47.702;9.410;2023-07-13T03:33:28;17.20;99.90
5870;DHT22;2961;47.702;9.410;2023-07-13T03:35:55;17.20;99.90
5870;DHT22;2961;47.702;9.410;2023-07-13T03:38:22;17.20;99.90
5870;DHT22;2961;47.702;9.410;2023-07-13T03:40:50;17.20;99.90
5870;DHT22;2961;47.702;9.410;2023-07-13T03:43:17;17.20;99.90
5870;DHT22;2961;47.702;9.410;2023-07-13T03:45:44;17.10;99.90
5870;DHT22;2961;47.702;9.410;2023-07-13T03:48:10;17.20;99.90
5870;DHT22;2961;47.702;9.410;2023-07-13T03:50:37;17.30;99.90
5870;DHT22;2961;47.702;9.410;2023-07-13T03:53:04;17.40;99.90
5870;DHT22;2961;47.702;9.410;2023-07-13T03:55:31;17.40;99.90
5870;DHT22;2961;47.702;9.410;2023-07-13T03:58:05;17.40;99.90
5870;DHT22;2961;47.702;9.410;2023-07-13T04:00:48;17.40;99.90
5870;DHT22;2961;47.702;9.410;2023-07-13T04:03:15;17.40;99.90
5870;DHT22;2961;47.702;9.410;2023-07-13T04:05:42;17.30;99.90
5870;DHT22;2961;47.702;9.410;2023-07-13T04:08:09;17.30;99.90
5870;DHT22;2961;47.702;9.410;2023-07-13T04:10:36;17.30;99.90
5870;DHT22;2961;47.702;9.410;2023-07-13T04:13:04;17.30;99.90
5870;DHT22;2961;47.702;9.410;2023-07-13T04:15:32;17.30;99.90
5870;DHT22;2961;47.702;9.410;2023-07-13T04:18:00;17.30;99.90
5870;DHT22;2961;47.702;9.410;2023-07-13T04:20:28;17.40;99.90
5870;DHT22;2961;47.702;9.410;2023-07-13T04:22:55;17.40;99.90
5870;DHT22;2961;47.702;9.410;2023-07-13T04:25:23;17.50;99.90
5870;DHT22;2961;47.702;9.410;2023-07-13T04:27:49;17.40;99.90
5870;DHT22;2961;47.702;9.410;2023-07-13T04:30:17;17.50;99.90
5870;DHT22;2961;47.702;9.410;2023-07-13T04:32:44;17.50;99.90
5870;DHT22;2961;47.702;9.410;2023-07-13T04:35:12;17.50;99.90
5870;DHT22;2961;47.702;9.410;2023-07-13T04:37:39;17.50;99.90
5870;DHT22;2961;47.702;9.410;2023-07-13T04:40:07;17.50;99.90
5870;DHT22;2961;47.702;9.410;2023-07-13T04:42:37;17.40;99.90
5870;DHT22;2961;47.702;9.410;2023-07-13T04:45:05;17.50;99.90
5870;DHT22;2961;47.702;9.410;2023-07-13T04:47:32;17.50;99.90
5870;DHT22;2961;47.702;9.410;2023-07-13T04:49:59;17.60;99.90
5870;DHT22;2961;47.702;9.410;2023-07-13T04:52:27;17.60;99.90
5870;DHT22;2961;47.702;9.410;2023-07-13T04:54:54;17.70;99.90
5870;DHT22;2961;47.702;9.410;2023-07-13T04:57:21;17.70;99.90
5870;DHT22;2961;47.702;9.410;2023-07-13T04:59:47;17.80;99.90
5870;DHT22;2961;47.702;9.410;2023-07-13T05:02:14;17.80;99.90
5870;DHT22;2961;47.702;9.410;2023-07-13T05:04:41;17.80;99.90
5870;DHT22;2961;47.702;9.410;2023-07-13T05:07:08;17.70;99.90
5870;DHT22;2961;47.702;9.410;2023-07-13T05:09:36;17.80;99.90
5870;DHT22;2961;47.702;9.410;2023-07-13T05:12:03;17.90;99.90
5870;DHT22;2961;47.702;9.410;2023-07-13T05:14:30;17.90;99.90
5870;DHT22;2961;47.702;9.410;2023-07-13T05:16:57;18.00;99.90
5870;DHT22;2961;47.702;9.410;2023-07-13T05:19:24;18.10;99.90
5870;DHT22;2961;47.702;9.410;2023-07-13T05:21:50;18.10;99.90
5870;DHT22;2961;47.702;9.410;2023-07-13T05:24:17;18.10;99.90
5870;DHT22;2961;47.702;9.410;2023-07-13T05:26:45;18.40;99.90
5870;DHT22;2961;47.702;9.410;2023-07-13T05:29:12;18.50;99.90
5870;DHT22;2961;47.702;9.410;2023-07-13T05:31:39;18.50;99.90
5870;DHT22;2961;47.702;9.410;2023-07-13T05:34:06;18.70;99.90
5870;DHT22;2961;47.702;9.410;2023-07-13T05:36:33;18.70;99.90
5870;DHT22;2961;47.702;9.410;2023-07-13T05:38:59;18.80;99.90
5870;DHT22;2961;47.702;9.410;2023-07-13T05:41:26;18.90;99.90
5870;DHT22;2961;47.702;9.410;2023-07-13T05:43:54;18.90;99.90
5870;DHT22;2961;47.702;9.410;2023-07-13T05:46:21;18.90;99.90
5870;DHT22;2961;47.702;9.410;2023-07-13T05:48:48;18.90;99.90
5870;DHT22;2961;47.702;9.410;2023-07-13T05:51:15;19.00;99.90
5870;DHT22;2961;47.702;9.410;2023-07-13T05:53:41;19.10;99.90
5870;DHT22;2961;47.702;9.410;2023-07-13T05:56:08;19.10;99.90
5870;DHT22;2961;47.702;9.410;2023-07-13T05:58:35;19.10;99.90
5870;DHT22;2961;47.702;9.410;2023-07-13T06:01:05;19.10;99.90
5870;DHT22;2961;47.702;9.410;2023-07-13T06:03:32;19.20;99.90
5870;DHT22;2961;47.702;9.410;2023-07-13T06:05:59;19.20;99.90
5870;DHT22;2961;47.702;9.410;2023-07-13T06:08:27;19.30;99.90
5870;DHT22;2961;47.702;9.410;2023-07-13T06:10:53;19.40;99.90
5870;DHT22;2961;47.702;9.410;2023-07-13T06:13:20;19.50;99.90
5870;DHT22;2961;47.702;9.410;2023-07-13T06:15:48;19.60;99.90
5870;DHT22;2961;47.702;9.410;2023-07-13T06:18:16;19.50;99.90
5870;DHT22;2961;47.702;9.410;2023-07-13T06:20:43;19.50;99.90
5870;DHT22;2961;47.702;9.410;2023-07-13T06:23:10;19.40;99.90
5870;DHT22;2961;47.702;9.410;2023-07-13T06:25:37;19.20;99.90
5870;DHT22;2961;47.702;9.410;2023-07-13T06:28:04;19.20;99.90
5870;DHT22;2961;47.702;9.410;2023-07-13T06:30:30;19.10;99.90
5870;DHT22;2961;47.702;9.410;2023-07-13T06:32:58;19.00;99.90
5870;DHT22;2961;47.702;9.410;2023-07-13T06:35:26;18.90;99.90
5870;DHT22;2961;47.702;9.410;2023-07-13T06:37:53;18.90;99.90
5870;DHT22;2961;47.702;9.410;2023-07-13T06:40:19;18.80;99.90
5870;DHT22;2961;47.702;9.410;2023-07-13T06:42:46;18.80;99.90
5870;DHT22;2961;47.702;9.410;2023-07-13T06:45:13;18.80;99.90
5870;DHT22;2961;47.702;9.410;2023-07-13T06:47:40;18.70;99.90
5870;DHT22;2961;47.702;9.410;2023-07-13T06:50:07;18.70;99.90
5870;DHT22;2961;47.702;9.410;2023-07-13T06:52:35;18.70;99.90
5870;DHT22;2961;47.702;9.410;2023-07-13T06:55:02;18.80;99.90
5870;DHT22;2961;47.702;9.410;2023-07-13T06:57:29;18.80;99.90
5870;DHT22;2961;47.702;9.410;2023-07-13T06:59:56;18.80;99.90
5870;DHT22;2961;47.702;9.410;2023-07-13T07:02:23;18.70;99.90
5870;DHT22;2961;47.702;9.410;2023-07-13T07:04:49;18.50;99.90
5870;DHT22;2961;47.702;9.410;2023-07-13T07:07:16;18.30;99.90
5870;DHT22;2961;47.702;9.410;2023-07-13T07:09:44;18.20;99.90
5870;DHT22;2961;47.702;9.410;2023-07-13T07:12:11;18.00;99.90
5870;DHT22;2961;47.702;9.410;2023-07-13T07:14:38;17.80;99.90
5870;DHT22;2961;47.702;9.410;2023-07-13T07:17:05;17.70;99.90
5870;DHT22;2961;47.702;9.410;2023-07-13T07:19:31;17.60;99.90
5870;DHT22;2961;47.702;9.410;2023-07-13T07:22:00;17.60;99.90
5870;DHT22;2961;47.702;9.410;2023-07-13T07:24:26;17.60;99.90
5870;DHT22;2961;47.702;9.410;2023-07-13T07:26:54;17.60;99.90
5870;DHT22;2961;47.702;9.410;2023-07-13T07:29:21;17.50;99.90
5870;DHT22;2961;47.702;9.410;2023-07-13T07:31:51;17.60;99.90
5870;DHT22;2961;47.702;9.410;2023-07-13T07:34:18;17.70;99.90
5870;DHT22;2961;47.702;9.410;2023-07-13T07:36:45;17.70;99.90
5870;DHT22;2961;47.702;9.410;2023-07-13T07:39:12;17.70;99.90
5870;DHT22;2961;47.702;9.410;2023-07-13T07:41:39;17.60;99.90
5870;DHT22;2961;47.702;9.410;2023-07-13T07:44:08;17.70;99.90
5870;DHT22;2961;47.702;9.410;2023-07-13T07:46:35;17.70;99.90
5870;DHT22;2961;47.702;9.410;2023-07-13T07:49:02;17.80;99.90
5870;DHT22;2961;47.702;9.410;2023-07-13T07:51:29;17.90;99.90
5870;DHT22;2961;47.702;9.410;2023-07-13T07:53:56;18.00;99.90
5870;DHT22;2961;47.702;9.410;2023-07-13T07:56:22;18.00;99.90
5870;DHT22;2961;47.702;9.410;2023-07-13T07:58:49;18.00;99.90
5870;DHT22;2961;47.702;9.410;2023-07-13T08:01:17;18.00;99.90
5870;DHT22;2961;47.702;9.410;2023-07-13T08:03:44;17.90;99.90
5870;DHT22;2961;47.702;9.410;2023-07-13T08:06:11;17.90;99.90
5870;DHT22;2961;47.702;9.410;2023-07-13T08:08:38;17.90;99.90
5870;DHT22;2961;47.702;9.410;2023-07-13T08:11:06;18.00;99.90
5870;DHT22;2961;47.702;9.410;2023-07-13T08:13:33;18.20;99.90
5870;DHT22;2961;47.702;9.410;2023-07-13T08:16:00;18.30;99.90
5870;DHT22;2961;47.702;9.410;2023-07-13T08:18:28;18.60;99.90
5870;DHT22;2961;47.702;9.410;2023-07-13T08:20:55;18.70;99.90
5870;DHT22;2961;47.702;9.410;2023-07-13T08:23:22;18.80;99.90
5870;DHT22;2961;47.702;9.410;2023-07-13T08:25:52;18.70;99.90
5870;DHT22;2961;47.702;9.410;2023-07-13T08:28:20;18.60;99.90
5870;DHT22;2961;47.702;9.410;2023-07-13T08:30:47;18.60;99.90
5870;DHT22;2961;47.702;9.410;2023-07-13T08:33:15;18.60;99.90
5870;DHT22;2961;47.702;9.410;2023-07-13T08:35:45;18.60;99.90
5870;DHT22;2961;47.702;9.410;2023-07-13T08:38:12;18.70;99.90
5870;DHT22;2961;47.702;9.410;2023-07-13T08:40:39;18.70;99.90
5870;DHT22;2961;47.702;9.410;2023-07-13T08:43:11;18.70;99.90
5870;DHT22;2961;47.702;9.410;2023-07-13T08:45:42;18.80;99.90
5870;DHT22;2961;47.702;9.410;2023-07-13T08:48:13;18.90;99.90
5870;DHT22;2961;47.702;9.410;2023-07-13T08:50:49;19.20;99.90
5870;DHT22;2961;47.702;9.410;2023-07-13T08:53:18;20.00;99.90
5870;DHT22;2961;47.702;9.410;2023-07-13T08:55:46;21.00;99.90
5870;DHT22;2961;47.702;9.410;2023-07-13T08:58:15;21.90;99.90
5870;DHT22;2961;47.702;9.410;2023-07-13T09:00:48;22.50;99.90
5870;DHT22;2961;47.702;9.410;2023-07-13T09:03:20;23.10;99.90
5870;DHT22;2961;47.702;9.410;2023-07-13T09:05:52;23.30;99.90
5870;DHT22;2961;47.702;9.410;2023-07-13T09:08:33;23.30;99.90
5870;DHT22;2961;47.702;9.410;2023-07-13T09:11:07;23.10;99.90
5870;DHT22;2961;47.702;9.410;2023-07-13T09:13:43;23.30;99.90
5870;DHT22;2961;47.702;9.410;2023-07-13T09:16:11;23.80;99.90
5870;DHT22;2961;47.702;9.410;2023-07-13T09:18:42;24.70;99.90
5870;DHT22;2961;47.702;9.410;2023-07-13T09:21:14;25.10;99.90
5870;DHT22;2961;47.702;9.410;2023-07-13T09:23:42;25.80;99.90
5870;DHT22;2961;47.702;9.410;2023-07-13T09:26:12;26.80;99.90
5870;DHT22;2961;47.702;9.410;2023-07-13T09:28:42;27.50;99.90
5870;DHT22;2961;47.702;9.410;2023-07-13T09:31:13;27.40;97.00
5870;DHT22;2961;47.702;9.410;2023-07-13T09:33:40;27.70;94.10
5870;DHT22;2961;47.702;9.410;2023-07-13T09:36:28;27.90;92.80
5870;DHT22;2961;47.702;9.410;2023-07-13T09:39:01;28.50;94.80
5870;DHT22;2961;47.702;9.410;2023-07-13T09:41:36;28.30;87.40
5870;DHT22;2961;47.702;9.410;2023-07-13T09:44:08;28.00;90.90
5870;DHT22;2961;47.702;9.410;2023-07-13T09:46:37;27.40;89.20
5870;DHT22;2961;47.702;9.410;2023-07-13T09:49:04;27.30;91.60
5870;DHT22;2961;47.702;9.410;2023-07-13T09:51:32;26.90;90.40
5870;DHT22;2961;47.702;9.410;2023-07-13T09:54:19;26.40;90.60
5870;DHT22;2961;47.702;9.410;2023-07-13T09:56:46;26.30;94.10
5870;DHT22;2961;47.702;9.410;2023-07-13T09:59:19;26.20;91.50
5870;DHT22;2961;47.702;9.410;2023-07-13T10:01:46;26.10;92.40
5870;DHT22;2961;47.702;9.410;2023-07-13T10:04:17;25.90;87.80
5870;DHT22;2961;47.702;9.410;2023-07-13T10:06:46;25.60;91.50
5870;DHT22;2961;47.702;9.410;2023-07-13T10:09:15;25.50;89.80
5870;DHT22;2961;47.702;9.410;2023-07-13T10:11:43;25.30;89.70
5870;DHT22;2961;47.702;9.410;2023-07-13T10:14:13;25.00;92.90
5870;DHT22;2961;47.702;9.410;2023-07-13T10:16:42;25.20;93.50
5870;DHT22;2961;47.702;9.410;2023-07-13T10:19:13;25.30;93.80
5870;DHT22;2961;47.702;9.410;2023-07-13T10:21:49;25.30;93.30
5870;DHT22;2961;47.702;9.410;2023-07-13T10:24:20;25.40;92.40
5870;DHT22;2961;47.702;9.410;2023-07-13T10:26:53;25.50;91.70
5870;DHT22;2961;47.702;9.410;2023-07-13T10:29:22;25.20;93.80
5870;DHT22;2961;47.702;9.410;2023-07-13T10:31:50;25.10;93.10
5870;DHT22;2961;47.702;9.410;2023-07-13T10:34:18;24.90;94.20
5870;DHT22;2961;47.702;9.410;2023-07-13T10:36:47;24.50;96.90
5870;DHT22;2961;47.702;9.410;2023-07-13T10:39:20;24.30;96.70
5870;DHT22;2961;47.702;9.410;2023-07-13T10:41:50;24.00;96.90
5870;DHT22;2961;47.702;9.410;2023-07-13T10:44:23;23.90;97.90
5870;DHT22;2961;47.702;9.410;2023-07-13T10:46:53;23.80;98.30
5870;DHT22;2961;47.702;9.410;2023-07-13T10:49:22;23.70;99.10
5870;DHT22;2961;47.702;9.410;2023-07-13T10:51:49;23.70;99.90
5870;DHT22;2961;47.702;9.410;2023-07-13T10:54:20;23.80;99.90
5870;DHT22;2961;47.702;9.410;2023-07-13T10:56:51;23.90;99.50
5870;DHT22;2961;47.702;9.410;2023-07-13T10:59:24;23.80;99.90
5870;DHT22;2961;47.702;9.410;2023-07-13T11:01:56;23.80;99.90
5870;DHT22;2961;47.702;9.410;2023-07-13T11:04:25;23.90;99.90
5870;DHT22;2961;47.702;9.410;2023-07-13T11:06:57;24.00;99.90
5870;DHT22;2961;47.702;9.410;2023-07-13T11:09:37;24.10;99.90
5870;DHT22;2961;47.702;9.410;2023-07-13T11:12:10;24.50;99.90
5870;DHT22;2961;47.702;9.410;2023-07-13T11:15:05;24.80;99.90
5870;DHT22;2961;47.702;9.410;2023-07-13T11:17:46;24.90;99.60
5870;DHT22;2961;47.702;9.410;2023-07-13T11:20:23;24.80;99.90
5870;DHT22;2961;47.702;9.410;2023-07-13T11:22:51;24.90;99.90
5870;DHT22;2961;47.702;9.410;2023-07-13T11:25:28;24.80;99.90
5870;DHT22;2961;47.702;9.410;2023-07-13T11:28:17;25.10;98.50
5870;DHT22;2961;47.702;9.410;2023-07-13T11:30:48;25.20;99.40
5870;DHT22;2961;47.702;9.410;2023-07-13T11:33:18;25.30;98.20
5870;DHT22;2961;47.702;9.410;2023-07-13T11:35:51;25.00;99.70
5870;DHT22;2961;47.702;9.410;2023-07-13T11:38:21;24.70;99.90
5870;DHT22;2961;47.702;9.410;2023-07-13T11:40:52;24.70;99.20
5870;DHT22;2961;47.702;9.410;2023-07-13T11:43:20;24.90;99.90
5870;DHT22;2961;47.702;9.410;2023-07-13T11:45:49;25.20;99.50
5870;DHT22;2961;47.702;9.410;2023-07-13T11:48:19;25.20;99.90
5870;DHT22;2961;47.702;9.410;2023-07-13T11:50:51;25.00;98.10
5870;DHT22;2961;47.702;9.410;2023-07-13T11:53:18;25.00;99.90
5870;DHT22;2961;47.702;9.410;2023-07-13T11:55:45;24.90;99.90
5870;DHT22;2961;47.702;9.410;2023-07-13T11:58:19;25.00;99.90
5870;DHT22;2961;47.702;9.410;2023-07-13T12:00:48;25.10;99.40
5870;DHT22;2961;47.702;9.410;2023-07-13T12:03:18;25.10;99.90
5870;DHT22;2961;47.702;9.410;2023-07-13T12:05:59;25.10;99.90
5870;DHT22;2961;47.702;9.410;2023-07-13T12:08:27;25.10;99.80
5870;DHT22;2961;47.702;9.410;2023-07-13T12:10:59;24.90;99.90
5870;DHT22;2961;47.702;9.410;2023-07-13T12:13:28;24.90;99.90
5870;DHT22;2961;47.702;9.410;2023-07-13T12:15:56;24.80;99.90
5870;DHT22;2961;47.702;9.410;2023-07-13T12:18:29;24.70;99.90
5870;DHT22;2961;47.702;9.410;2023-07-13T12:20:58;24.80;99.90
5870;DHT22;2961;47.702;9.410;2023-07-13T12:23:29;24.60;99.90
5870;DHT22;2961;47.702;9.410;2023-07-13T12:25:57;24.40;99.90
5870;DHT22;2961;47.702;9.410;2023-07-13T12:28:32;24.20;99.90
5870;DHT22;2961;47.702;9.410;2023-07-13T12:31:00;24.00;99.90
5870;DHT22;2961;47.702;9.410;2023-07-13T12:33:29;24.00;99.90
5870;DHT22;2961;47.702;9.410;2023-07-13T12:36:00;24.00;99.90
5870;DHT22;2961;47.702;9.410;2023-07-13T12:38:29;24.10;99.80
5870;DHT22;2961;47.702;9.410;2023-07-13T12:40:56;24.20;99.90
5870;DHT22;2961;47.702;9.410;2023-07-13T12:43:24;24.20;99.90
5870;DHT22;2961;47.702;9.410;2023-07-13T12:45:58;24.20;99.90
5870;DHT22;2961;47.702;9.410;2023-07-13T12:48:26;24.10;99.90
5870;DHT22;2961;47.702;9.410;2023-07-13T12:50:55;24.00;99.90
5870;DHT22;2961;47.702;9.410;2023-07-13T12:53:29;24.00;99.90
5870;DHT22;2961;47.702;9.410;2023-07-13T12:55:59;23.90;99.90
5870;DHT22;2961;47.702;9.410;2023-07-13T12:58:28;23.80;99.90
5870;DHT22;2961;47.702;9.410;2023-07-13T13:00:58;23.80;99.90
5870;DHT22;2961;47.702;9.410;2023-07-13T13:03:29;23.90;99.90
5870;DHT22;2961;47.702;9.410;2023-07-13T13:05:59;23.90;99.90
5870;DHT22;2961;47.702;9.410;2023-07-13T13:08:28;24.10;99.90
5870;DHT22;2961;47.702;9.410;2023-07-13T13:10:55;24.30;99.90
5870;DHT22;2961;47.702;9.410;2023-07-13T13:13:22;24.30;99.90
5870;DHT22;2961;47.702;9.410;2023-07-13T13:15:50;24.30;99.90
5870;DHT22;2961;47.702;9.410;2023-07-13T13:18:20;24.20;99.90
5870;DHT22;2961;47.702;9.410;2023-07-13T13:20:49;24.00;99.90
5870;DHT22;2961;47.702;9.410;2023-07-13T13:23:17;24.00;99.90
5870;DHT22;2961;47.702;9.410;2023-07-13T13:25:44;24.00;99.90
5870;DHT22;2961;47.702;9.410;2023-07-13T13:28:14;24.20;99.90
5870;DHT22;2961;47.702;9.410;2023-07-13T13:30:42;24.00;99.90
5870;DHT22;2961;47.702;9.410;2023-07-13T13:33:11;24.10;99.90
5870;DHT22;2961;47.702;9.410;2023-07-13T13:35:40;24.20;99.90
5870;DHT22;2961;47.702;9.410;2023-07-13T13:38:12;24.30;99.90
5870;DHT22;2961;47.702;9.410;2023-07-13T13:40:40;24.40;99.90
5870;DHT22;2961;47.702;9.410;2023-07-13T13:43:14;24.30;99.90
5870;DHT22;2961;47.702;9.410;2023-07-13T13:45:42;24.30;99.90
5870;DHT22;2961;47.702;9.410;2023-07-13T13:48:14;24.40;99.90
5870;DHT22;2961;47.702;9.410;2023-07-13T13:50:43;24.50;99.90
5870;DHT22;2961;47.702;9.410;2023-07-13T13:53:11;24.60;99.90
5870;DHT22;2961;47.702;9.410;2023-07-13T13:55:39;24.50;99.90
5870;DHT22;2961;47.702;9.410;2023-07-13T13:58:07;24.50;99.90
5870;DHT22;2961;47.702;9.410;2023-07-13T14:00:34;24.50;99.90
5870;DHT22;2961;47.702;9.410;2023-07-13T14:03:01;24.60;99.90
5870;DHT22;2961;47.702;9.410;2023-07-13T14:05:28;24.50;99.90
5870;DHT22;2961;47.702;9.410;2023-07-13T14:07:57;24.60;99.90
5870;DHT22;2961;47.702;9.410;2023-07-13T14:10:25;24.70;99.90
5870;DHT22;2961;47.702;9.410;2023-07-13T14:12:54;24.70;99.90
5870;DHT22;2961;47.702;9.410;2023-07-13T14:15:24;24.70;99.90
5870;DHT22;2961;47.702;9.410;2023-07-13T14:17:52;24.80;99.90
5870;DHT22;2961;47.702;9.410;2023-07-13T14:20:22;24.80;99.90
5870;DHT22;2961;47.702;9.410;2023-07-13T14:22:50;24.90;99.90
5870;DHT22;2961;47.702;9.410;2023-07-13T14:25:19;24.90;99.90
5870;DHT22;2961;47.702;9.410;2023-07-13T14:27:49;24.90;99.90
5870;DHT22;2961;47.702;9.410;2023-07-13T14:30:20;24.90;99.90
5870;DHT22;2961;47.702;9.410;2023-07-13T14:32:48;24.90;99.30
5870;DHT22;2961;47.702;9.410;2023-07-13T14:35:18;25.00;99.90
5870;DHT22;2961;47.702;9.410;2023-07-13T14:37:46;25.00;99.90
5870;DHT22;2961;47.702;9.410;2023-07-13T14:40:14;25.10;99.90
5870;DHT22;2961;47.702;9.410;2023-07-13T14:42:42;25.00;99.90
5870;DHT22;2961;47.702;9.410;2023-07-13T14:45:13;25.00;99.90
5870;DHT22;2961;47.702;9.410;2023-07-13T14:47:42;24.90;99.90
5870;DHT22;2961;47.702;9.410;2023-07-13T14:50:14;25.00;99.90
5870;DHT22;2961;47.702;9.410;2023-07-13T14:52:42;25.10;99.90
5870;DHT22;2961;47.702;9.410;2023-07-13T14:55:11;25.10;99.90
5870;DHT22;2961;47.702;9.410;2023-07-13T14:57:38;25.10;99.90
5870;DHT22;2961;47.702;9.410;2023-07-13T15:00:13;25.10;99.90
5870;DHT22;2961;47.702;9.410;2023-07-13T15:02:41;25.20;99.90
5870;DHT22;2961;47.702;9.410;2023-07-13T15:05:13;25.10;99.90
5870;DHT22;2961;47.702;9.410;2023-07-13T15:07:41;25.10;99.90
5870;DHT22;2961;47.702;9.410;2023-07-13T15:10:15;25.20;99.90
5870;DHT22;2961;47.702;9.410;2023-07-13T15:12:43;25.20;99.90
5870;DHT22;2961;47.702;9.410;2023-07-13T15:15:11;25.20;99.90
5870;DHT22;2961;47.702;9.410;2023-07-13T15:17:41;25.30;99.90
5870;DHT22;2961;47.702;9.410;2023-07-13T15:20:17;25.30;99.90
5870;DHT22;2961;47.702;9.410;2023-07-13T15:22:45;25.20;99.90
5870;DHT22;2961;47.702;9.410;2023-07-13T15:25:16;25.20;99.90
5870;DHT22;2961;47.702;9.410;2023-07-13T15:27:43;25.30;99.90
5870;DHT22;2961;47.702;9.410;2023-07-13T15:30:13;25.30;99.90
5870;DHT22;2961;47.702;9.410;2023-07-13T15:32:40;25.20;99.90
5870;DHT22;2961;47.702;9.410;2023-07-13T15:35:13;25.20;99.90
5870;DHT22;2961;47.702;9.410;2023-07-13T15:37:41;25.20;99.90
5870;DHT22;2961;47.702;9.410;2023-07-13T15:40:09;25.20;99.90
5870;DHT22;2961;47.702;9.410;2023-07-13T15:42:37;25.20;99.90
5870;DHT22;2961;47.702;9.410;2023-07-13T15:45:15;25.10;99.90
5870;DHT22;2961;47.702;9.410;2023-07-13T15:47:43;25.10;99.90
5870;DHT22;2961;47.702;9.410;2023-07-13T15:50:15;25.00;99.30
5870;DHT22;2961;47.702;9.410;2023-07-13T15:52:43;25.00;99.90
5870;DHT22;2961;47.702;9.410;2023-07-13T15:55:12;25.00;99.90
5870;DHT22;2961;47.702;9.410;2023-07-13T15:57:41;25.00;99.40
5870;DHT22;2961;47.702;9.410;2023-07-13T16:00:22;25.00;99.90
5870;DHT22;2961;47.702;9.410;2023-07-13T16:02:49;25.00;99.60
5870;DHT22;2961;47.702;9.410;2023-07-13T16:05:17;24.90;99.90
5870;DHT22;2961;47.702;9.410;2023-07-13T16:07:46;24.90;99.90
5870;DHT22;2961;47.702;9.410;2023-07-13T16:10:15;24.90;99.90
5870;DHT22;2961;47.702;9.410;2023-07-13T16:12:42;25.00;99.90
5870;DHT22;2961;47.702;9.410;2023-07-13T16:15:13;25.00;99.30